sensor_id;sensor_type;location;lat;lon;timestamp;P1;durP1;ratioP1;P2;durP2;ratioP2
6667;SDS011;3370;47.712;9.082;2023-02-18T00:01:26;5.10;;;4.00;;
6667;SDS011;3370;47.712;9.082;2023-02-18T00:03:54;10.07;;;3.97;;
6667;SDS011;3370;47.712;9.082;2023-02-18T00:06:31;5.10;;;4.30;;
6667;SDS011;3370;47.712;9.082;2023-02-18T00:08:59;7.73;;;4.33;;
6667;SDS011;3370;47.712;9.082;2023-02-18T00:11:26;8.00;;;4.23;;
6667;SDS011;3370;47.712;9.082;2023-02-18T00:13:55;4.00;;;3.70;;
6667;SDS011;3370;47.712;9.082;2023-02-18T00:16:25;4.10;;;3.80;;
6667;SDS011;3370;47.712;9.082;2023-02-18T00:18:56;4.27;;;3.97;;
6667;SDS011;3370;47.712;9.082;2023-02-18T00:21:23;4.40;;;4.00;;
6667;SDS011;3370;47.712;9.082;2023-02-18T00:23:50;6.53;;;4.40;;
6667;SDS011;3370;47.712;9.082;2023-02-18T00:26:16;4.73;;;3.40;;
6667;SDS011;3370;47.712;9.082;2023-02-18T00:28:43;7.40;;;3.90;;
6667;SDS011;3370;47.712;9.082;2023-02-18T00:31:13;4.30;;;3.80;;
6667;SDS011;3370;47.712;9.082;2023-02-18T00:34:01;5.97;;;3.70;;
6667;SDS011;3370;47.712;9.082;2023-02-18T00:36:29;4.53;;;3.70;;
6667;SDS011;3370;47.712;9.082;2023-02-18T00:38:58;3.37;;;3.17;;
6667;SDS011;3370;47.712;9.082;2023-02-18T00:41:27;3.93;;;3.60;;
6667;SDS011;3370;47.712;9.082;2023-02-18T00:43:54;3.17;;;2.87;;
6667;SDS011;3370;47.712;9.082;2023-02-18T00:46:21;3.43;;;3.10;;
6667;SDS011;3370;47.712;9.082;2023-02-18T00:48:48;3.53;;;3.33;;
6667;SDS011;3370;47.712;9.082;2023-02-18T00:51:14;4.87;;;3.27;;
6667;SDS011;3370;47.712;9.082;2023-02-18T00:53:40;3.23;;;3.00;;
6667;SDS011;3370;47.712;9.082;2023-02-18T00:56:06;4.03;;;3.70;;
6667;SDS011;3370;47.712;9.082;2023-02-18T00:58:33;5.67;;;3.57;;
6667;SDS011;3370;47.712;9.082;2023-02-18T01:01:00;3.00;;;2.80;;
6667;SDS011;3370;47.712;9.082;2023-02-18T01:03:27;3.27;;;3.07;;
6667;SDS011;3370;47.712;9.082;2023-02-18T01:05:53;4.00;;;3.10;;
6667;SDS011;3370;47.712;9.082;2023-02-18T01:08:20;3.67;;;3.17;;
6667;SDS011;3370;47.712;9.082;2023-02-18T01:10:48;3.70;;;3.40;;
6667;SDS011;3370;47.712;9.082;2023-02-18T01:13:18;3.20;;;3.00;;
6667;SDS011;3370;47.712;9.082;2023-02-18T01:15:44;3.93;;;3.20;;
6667;SDS011;3370;47.712;9.082;2023-02-18T01:18:10;3.40;;;3.20;;
6667;SDS011;3370;47.712;9.082;2023-02-18T01:20:38;3.10;;;2.90;;
6667;SDS011;3370;47.712;9.082;2023-02-18T01:23:06;3.43;;;3.17;;
6667;SDS011;3370;47.712;9.082;2023-02-18T01:25:33;3.60;;;3.30;;
6667;SDS011;3370;47.712;9.082;2023-02-18T01:28:00;3.17;;;2.87;;
6667;SDS011;3370;47.712;9.082;2023-02-18T01:30:26;3.23;;;3.03;;
6667;SDS011;3370;47.712;9.082;2023-02-18T01:32:52;3.50;;;3.27;;
6667;SDS011;3370;47.712;9.082;2023-02-18T01:35:19;4.10;;;3.10;;
6667;SDS011;3370;47.712;9.082;2023-02-18T01:37:45;3.37;;;3.07;;
6667;SDS011;3370;47.712;9.082;2023-02-18T01:40:12;4.33;;;3.30;;
6667;SDS011;3370;47.712;9.082;2023-02-18T01:42:42;3.73;;;3.20;;
6667;SDS011;3370;47.712;9.082;2023-02-18T01:45:54;5.63;;;3.03;;
6667;SDS011;3370;47.712;9.082;2023-02-18T01:48:00;3.00;;;2.80;;
6667;SDS011;3370;47.712;9.082;2023-02-18T01:50:42;2.93;;;2.63;;
6667;SDS011;3370;47.712;9.082;2023-02-18T01:53:17;3.30;;;3.10;;
6667;SDS011;3370;47.712;9.082;2023-02-18T01:55:50;3.43;;;2.70;;
6667;SDS011;3370;47.712;9.082;2023-02-18T01:58:16;2.80;;;2.60;;
6667;SDS011;3370;47.712;9.082;2023-02-18T02:00:42;2.97;;;2.43;;
6667;SDS011;3370;47.712;9.082;2023-02-18T02:03:08;3.33;;;2.57;;
6667;SDS011;3370;47.712;9.082;2023-02-18T02:05:34;2.33;;;2.23;;
6667;SDS011;3370;47.712;9.082;2023-02-18T02:08:00;2.77;;;2.47;;
6667;SDS011;3370;47.712;9.082;2023-02-18T02:10:33;2.37;;;2.27;;
6667;SDS011;3370;47.712;9.082;2023-02-18T02:16:17;2.60;;;2.40;;
6667;SDS011;3370;47.712;9.082;2023-02-18T02:25:28;1.87;;;1.77;;
6667;SDS011;3370;47.712;9.082;2023-02-18T02:28:36;1.50;;;1.50;;
6667;SDS011;3370;47.712;9.082;2023-02-18T02:34:43;1.67;;;1.60;;
6667;SDS011;3370;47.712;9.082;2023-02-18T02:43:12;2.30;;;2.20;;
6667;SDS011;3370;47.712;9.082;2023-02-18T02:48:56;3.57;;;3.27;;
6667;SDS011;3370;47.712;9.082;2023-02-18T02:54:26;3.67;;;3.37;;
6667;SDS011;3370;47.712;9.082;2023-02-18T02:59:43;5.20;;;3.63;;
6667;SDS011;3370;47.712;9.082;2023-02-18T03:02:33;3.47;;;3.23;;
6667;SDS011;3370;47.712;9.082;2023-02-18T03:08:07;3.87;;;3.57;;
6667;SDS011;3370;47.712;9.082;2023-02-18T03:11:10;3.73;;;3.50;;
6667;SDS011;3370;47.712;9.082;2023-02-18T03:16:49;4.23;;;3.83;;
6667;SDS011;3370;47.712;9.082;2023-02-18T03:19:45;4.70;;;4.00;;
6667;SDS011;3370;47.712;9.082;2023-02-18T03:24:49;3.67;;;3.33;;
6667;SDS011;3370;47.712;9.082;2023-02-18T03:29:56;5.03;;;4.63;;
6667;SDS011;3370;47.712;9.082;2023-02-18T03:32:36;4.40;;;4.00;;
6667;SDS011;3370;47.712;9.082;2023-02-18T03:35:02;3.87;;;3.57;;
6667;SDS011;3370;47.712;9.082;2023-02-18T03:37:38;5.60;;;3.37;;
6667;SDS011;3370;47.712;9.082;2023-02-18T03:40:12;4.10;;;3.80;;
6667;SDS011;3370;47.712;9.082;2023-02-18T03:42:39;4.13;;;3.70;;
6667;SDS011;3370;47.712;9.082;2023-02-18T03:45:05;4.20;;;3.80;;
6667;SDS011;3370;47.712;9.082;2023-02-18T03:47:31;4.87;;;3.83;;
6667;SDS011;3370;47.712;9.082;2023-02-18T03:49:57;4.03;;;3.80;;
6667;SDS011;3370;47.712;9.082;2023-02-18T03:52:23;3.60;;;3.40;;
6667;SDS011;3370;47.712;9.082;2023-02-18T03:54:49;4.30;;;3.80;;
6667;SDS011;3370;47.712;9.082;2023-02-18T03:57:15;4.23;;;3.63;;
6667;SDS011;3370;47.712;9.082;2023-02-18T03:59:40;3.83;;;3.60;;
6667;SDS011;3370;47.712;9.082;2023-02-18T04:02:06;5.70;;;3.50;;
6667;SDS011;3370;47.712;9.082;2023-02-18T04:04:32;7.00;;;3.80;;
6667;SDS011;3370;47.712;9.082;2023-02-18T04:06:58;4.90;;;3.70;;
6667;SDS011;3370;47.712;9.082;2023-02-18T04:09:24;3.80;;;3.50;;
6667;SDS011;3370;47.712;9.082;2023-02-18T04:11:50;3.50;;;3.23;;
6667;SDS011;3370;47.712;9.082;2023-02-18T04:14:15;6.87;;;3.53;;
6667;SDS011;3370;47.712;9.082;2023-02-18T04:16:41;3.67;;;3.37;;
6667;SDS011;3370;47.712;9.082;2023-02-18T04:19:07;4.30;;;3.50;;
6667;SDS011;3370;47.712;9.082;2023-02-18T04:21:33;6.47;;;3.43;;
6667;SDS011;3370;47.712;9.082;2023-02-18T04:23:59;3.50;;;2.90;;
6667;SDS011;3370;47.712;9.082;2023-02-18T04:26:25;3.60;;;3.30;;
6667;SDS011;3370;47.712;9.082;2023-02-18T04:28:51;5.87;;;3.47;;
6667;SDS011;3370;47.712;9.082;2023-02-18T04:31:17;3.23;;;2.90;;
6667;SDS011;3370;47.712;9.082;2023-02-18T04:33:43;3.07;;;2.87;;
6667;SDS011;3370;47.712;9.082;2023-02-18T04:36:09;4.27;;;3.43;;
6667;SDS011;3370;47.712;9.082;2023-02-18T04:38:34;7.60;;;3.60;;
6667;SDS011;3370;47.712;9.082;2023-02-18T04:41:00;4.40;;;3.20;;
6667;SDS011;3370;47.712;9.082;2023-02-18T04:43:26;3.33;;;3.03;;
6667;SDS011;3370;47.712;9.082;2023-02-18T04:45:52;4.00;;;3.60;;
6667;SDS011;3370;47.712;9.082;2023-02-18T04:48:17;3.27;;;3.07;;
6667;SDS011;3370;47.712;9.082;2023-02-18T04:50:44;4.17;;;3.37;;
6667;SDS011;3370;47.712;9.082;2023-02-18T04:53:10;4.17;;;3.40;;
6667;SDS011;3370;47.712;9.082;2023-02-18T04:55:36;7.10;;;2.67;;
6667;SDS011;3370;47.712;9.082;2023-02-18T04:58:02;3.87;;;3.43;;
6667;SDS011;3370;47.712;9.082;2023-02-18T05:00:27;5.30;;;3.60;;
6667;SDS011;3370;47.712;9.082;2023-02-18T05:02:53;5.93;;;3.50;;
6667;SDS011;3370;47.712;9.082;2023-02-18T05:05:20;3.80;;;3.50;;
6667;SDS011;3370;47.712;9.082;2023-02-18T05:07:45;4.77;;;3.33;;
6667;SDS011;3370;47.712;9.082;2023-02-18T05:10:14;3.40;;;3.20;;
6667;SDS011;3370;47.712;9.082;2023-02-18T05:12:42;3.93;;;3.57;;
6667;SDS011;3370;47.712;9.082;2023-02-18T05:15:08;6.57;;;3.40;;
6667;SDS011;3370;47.712;9.082;2023-02-18T05:17:34;5.07;;;3.40;;
6667;SDS011;3370;47.712;9.082;2023-02-18T05:20:00;3.97;;;3.67;;
6667;SDS011;3370;47.712;9.082;2023-02-18T05:22:26;4.03;;;3.57;;
6667;SDS011;3370;47.712;9.082;2023-02-18T05:24:51;3.90;;;3.20;;
6667;SDS011;3370;47.712;9.082;2023-02-18T05:27:17;4.53;;;3.70;;
6667;SDS011;3370;47.712;9.082;2023-02-18T05:29:43;4.07;;;3.77;;
6667;SDS011;3370;47.712;9.082;2023-02-18T05:32:09;3.63;;;3.30;;
6667;SDS011;3370;47.712;9.082;2023-02-18T05:34:35;5.00;;;3.60;;
6667;SDS011;3370;47.712;9.082;2023-02-18T05:37:00;5.40;;;4.13;;
6667;SDS011;3370;47.712;9.082;2023-02-18T05:39:26;4.87;;;4.17;;
6667;SDS011;3370;47.712;9.082;2023-02-18T05:41:52;4.33;;;3.93;;
6667;SDS011;3370;47.712;9.082;2023-02-18T05:44:18;3.87;;;3.47;;
6667;SDS011;3370;47.712;9.082;2023-02-18T05:46:57;3.70;;;3.40;;
6667;SDS011;3370;47.712;9.082;2023-02-18T05:49:29;3.80;;;3.50;;
6667;SDS011;3370;47.712;9.082;2023-02-18T05:51:56;3.57;;;3.33;;
6667;SDS011;3370;47.712;9.082;2023-02-18T05:54:22;4.47;;;4.07;;
6667;SDS011;3370;47.712;9.082;2023-02-18T05:56:49;4.17;;;3.80;;
6667;SDS011;3370;47.712;9.082;2023-02-18T05:59:15;4.20;;;3.80;;
6667;SDS011;3370;47.712;9.082;2023-02-18T06:01:41;4.23;;;3.47;;
6667;SDS011;3370;47.712;9.082;2023-02-18T06:04:07;3.63;;;3.33;;
6667;SDS011;3370;47.712;9.082;2023-02-18T06:06:33;5.60;;;3.50;;
6667;SDS011;3370;47.712;9.082;2023-02-18T06:08:59;3.87;;;3.57;;
6667;SDS011;3370;47.712;9.082;2023-02-18T06:11:25;3.20;;;3.00;;
6667;SDS011;3370;47.712;9.082;2023-02-18T06:13:51;3.30;;;2.90;;
6667;SDS011;3370;47.712;9.082;2023-02-18T06:16:17;3.57;;;3.27;;
6667;SDS011;3370;47.712;9.082;2023-02-18T06:18:43;3.20;;;2.90;;
6667;SDS011;3370;47.712;9.082;2023-02-18T06:21:09;3.10;;;2.83;;
6667;SDS011;3370;47.712;9.082;2023-02-18T06:23:34;2.70;;;2.50;;
6667;SDS011;3370;47.712;9.082;2023-02-18T06:26:00;2.63;;;2.43;;
6667;SDS011;3370;47.712;9.082;2023-02-18T06:28:26;3.83;;;2.83;;
6667;SDS011;3370;47.712;9.082;2023-02-18T06:30:52;2.27;;;2.10;;
6667;SDS011;3370;47.712;9.082;2023-02-18T06:33:17;3.00;;;2.70;;
6667;SDS011;3370;47.712;9.082;2023-02-18T06:35:55;3.33;;;2.10;;
6667;SDS011;3370;47.712;9.082;2023-02-18T06:38:23;2.07;;;1.97;;
6667;SDS011;3370;47.712;9.082;2023-02-18T06:40:49;2.00;;;1.90;;
6667;SDS011;3370;47.712;9.082;2023-02-18T06:43:15;1.60;;;1.50;;
6667;SDS011;3370;47.712;9.082;2023-02-18T06:45:43;2.20;;;2.10;;
6667;SDS011;3370;47.712;9.082;2023-02-18T06:48:09;2.30;;;2.17;;
6667;SDS011;3370;47.712;9.082;2023-02-18T06:50:35;2.20;;;2.10;;
6667;SDS011;3370;47.712;9.082;2023-02-18T06:53:01;2.40;;;2.20;;
6667;SDS011;3370;47.712;9.082;2023-02-18T06:55:26;2.57;;;2.37;;
6667;SDS011;3370;47.712;9.082;2023-02-18T06:57:52;4.10;;;2.60;;
6667;SDS011;3370;47.712;9.082;2023-02-18T07:00:18;2.80;;;2.60;;
6667;SDS011;3370;47.712;9.082;2023-02-18T07:02:44;3.10;;;2.90;;
6667;SDS011;3370;47.712;9.082;2023-02-18T07:05:10;3.00;;;2.80;;
6667;SDS011;3370;47.712;9.082;2023-02-18T07:07:38;4.70;;;2.70;;
6667;SDS011;3370;47.712;9.082;2023-02-18T07:10:05;10.73;;;2.80;;
6667;SDS011;3370;47.712;9.082;2023-02-18T07:12:31;2.80;;;2.60;;
6667;SDS011;3370;47.712;9.082;2023-02-18T07:14:58;3.83;;;2.60;;
6667;SDS011;3370;47.712;9.082;2023-02-18T07:17:24;2.93;;;2.63;;
6667;SDS011;3370;47.712;9.082;2023-02-18T07:19:49;2.70;;;2.60;;
6667;SDS011;3370;47.712;9.082;2023-02-18T07:22:15;3.27;;;3.07;;
6667;SDS011;3370;47.712;9.082;2023-02-18T07:24:41;3.07;;;2.87;;
6667;SDS011;3370;47.712;9.082;2023-02-18T07:27:07;3.07;;;2.83;;
6667;SDS011;3370;47.712;9.082;2023-02-18T07:29:33;2.70;;;2.53;;
6667;SDS011;3370;47.712;9.082;2023-02-18T07:31:59;4.03;;;2.93;;
6667;SDS011;3370;47.712;9.082;2023-02-18T07:34:25;3.00;;;2.70;;
6667;SDS011;3370;47.712;9.082;2023-02-18T07:36:51;3.70;;;2.60;;
6667;SDS011;3370;47.712;9.082;2023-02-18T07:39:16;3.03;;;2.83;;
6667;SDS011;3370;47.712;9.082;2023-02-18T07:41:45;3.50;;;2.90;;
6667;SDS011;3370;47.712;9.082;2023-02-18T07:44:13;3.00;;;2.80;;
6667;SDS011;3370;47.712;9.082;2023-02-18T07:46:39;7.10;;;2.60;;
6667;SDS011;3370;47.712;9.082;2023-02-18T07:49:06;3.53;;;3.23;;
6667;SDS011;3370;47.712;9.082;2023-02-18T07:51:33;3.00;;;2.80;;
6667;SDS011;3370;47.712;9.082;2023-02-18T07:53:59;3.17;;;2.80;;
6667;SDS011;3370;47.712;9.082;2023-02-18T07:56:25;2.80;;;2.60;;
6667;SDS011;3370;47.712;9.082;2023-02-18T07:58:50;6.33;;;2.97;;
6667;SDS011;3370;47.712;9.082;2023-02-18T08:01:16;3.40;;;3.20;;
6667;SDS011;3370;47.712;9.082;2023-02-18T08:03:42;3.13;;;2.83;;
6667;SDS011;3370;47.712;9.082;2023-02-18T08:06:12;2.60;;;2.40;;
6667;SDS011;3370;47.712;9.082;2023-02-18T08:08:49;4.00;;;3.00;;
6667;SDS011;3370;47.712;9.082;2023-02-18T08:11:14;3.20;;;2.90;;
6667;SDS011;3370;47.712;9.082;2023-02-18T08:13:40;3.47;;;3.17;;
6667;SDS011;3370;47.712;9.082;2023-02-18T08:16:06;3.17;;;2.87;;
6667;SDS011;3370;47.712;9.082;2023-02-18T08:18:34;3.20;;;2.90;;
6667;SDS011;3370;47.712;9.082;2023-02-18T08:20:59;3.10;;;2.90;;
6667;SDS011;3370;47.712;9.082;2023-02-18T08:23:25;3.63;;;3.33;;
6667;SDS011;3370;47.712;9.082;2023-02-18T08:25:51;3.80;;;2.90;;
6667;SDS011;3370;47.712;9.082;2023-02-18T08:28:19;4.07;;;2.90;;
6667;SDS011;3370;47.712;9.082;2023-02-18T08:30:47;3.40;;;3.17;;
6667;SDS011;3370;47.712;9.082;2023-02-18T08:33:15;3.00;;;2.80;;
6667;SDS011;3370;47.712;9.082;2023-02-18T08:35:42;2.80;;;2.60;;
6667;SDS011;3370;47.712;9.082;2023-02-18T08:38:10;2.60;;;2.40;;
6667;SDS011;3370;47.712;9.082;2023-02-18T08:40:36;2.93;;;2.63;;
6667;SDS011;3370;47.712;9.082;2023-02-18T08:43:02;2.83;;;2.63;;
6667;SDS011;3370;47.712;9.082;2023-02-18T08:45:28;2.97;;;2.77;;
6667;SDS011;3370;47.712;9.082;2023-02-18T08:47:54;10.90;;;3.27;;
6667;SDS011;3370;47.712;9.082;2023-02-18T08:50:19;3.57;;;3.23;;
6667;SDS011;3370;47.712;9.082;2023-02-18T08:52:50;2.93;;;2.73;;
6667;SDS011;3370;47.712;9.082;2023-02-18T08:55:16;3.00;;;2.60;;
6667;SDS011;3370;47.712;9.082;2023-02-18T08:57:45;3.13;;;2.87;;
6667;SDS011;3370;47.712;9.082;2023-02-18T09:00:13;3.07;;;2.80;;
6667;SDS011;3370;47.712;9.082;2023-02-18T09:02:41;2.63;;;2.53;;
6667;SDS011;3370;47.712;9.082;2023-02-18T09:05:08;2.37;;;2.17;;
6667;SDS011;3370;47.712;9.082;2023-02-18T09:07:35;3.20;;;2.57;;
6667;SDS011;3370;47.712;9.082;2023-02-18T09:10:01;2.10;;;2.00;;
6667;SDS011;3370;47.712;9.082;2023-02-18T09:12:31;3.10;;;2.83;;
6667;SDS011;3370;47.712;9.082;2023-02-18T09:14:57;2.30;;;2.13;;
6667;SDS011;3370;47.712;9.082;2023-02-18T09:17:24;4.30;;;2.20;;
6667;SDS011;3370;47.712;9.082;2023-02-18T09:19:51;2.40;;;2.20;;
6667;SDS011;3370;47.712;9.082;2023-02-18T09:22:17;2.43;;;2.23;;
6667;SDS011;3370;47.712;9.082;2023-02-18T09:24:44;2.13;;;2.03;;
6667;SDS011;3370;47.712;9.082;2023-02-18T09:27:09;2.07;;;1.90;;
6667;SDS011;3370;47.712;9.082;2023-02-18T09:29:37;2.83;;;1.90;;
6667;SDS011;3370;47.712;9.082;2023-02-18T09:32:05;1.87;;;1.70;;
6667;SDS011;3370;47.712;9.082;2023-02-18T09:34:32;2.50;;;2.30;;
6667;SDS011;3370;47.712;9.082;2023-02-18T09:36:59;2.03;;;1.93;;
6667;SDS011;3370;47.712;9.082;2023-02-18T09:39:25;2.80;;;1.80;;
6667;SDS011;3370;47.712;9.082;2023-02-18T09:41:52;2.50;;;1.80;;
6667;SDS011;3370;47.712;9.082;2023-02-18T09:46:58;2.00;;;1.90;;
6667;SDS011;3370;47.712;9.082;2023-02-18T09:49:51;4.27;;;1.87;;
6667;SDS011;3370;47.712;9.082;2023-02-18T09:52:23;1.80;;;1.70;;
6667;SDS011;3370;47.712;9.082;2023-02-18T09:54:55;1.90;;;1.80;;
6667;SDS011;3370;47.712;9.082;2023-02-18T09:57:23;3.43;;;1.77;;
6667;SDS011;3370;47.712;9.082;2023-02-18T10:00:58;1.90;;;1.80;;
6667;SDS011;3370;47.712;9.082;2023-02-18T10:03:14;1.87;;;1.77;;
6667;SDS011;3370;47.712;9.082;2023-02-18T10:05:54;2.60;;;1.87;;
6667;SDS011;3370;47.712;9.082;2023-02-18T10:08:41;2.87;;;1.50;;
6667;SDS011;3370;47.712;9.082;2023-02-18T10:11:12;1.80;;;1.40;;
6667;SDS011;3370;47.712;9.082;2023-02-18T10:13:53;2.10;;;1.90;;
6667;SDS011;3370;47.712;9.082;2023-02-18T10:16:21;4.40;;;1.83;;
6667;SDS011;3370;47.712;9.082;2023-02-18T10:18:49;2.50;;;1.57;;
6667;SDS011;3370;47.712;9.082;2023-02-18T10:21:25;2.30;;;2.03;;
6667;SDS011;3370;47.712;9.082;2023-02-18T10:23:59;2.10;;;2.00;;
6667;SDS011;3370;47.712;9.082;2023-02-18T10:27:05;3.43;;;2.07;;
6667;SDS011;3370;47.712;9.082;2023-02-18T10:29:33;1.40;;;1.40;;
6667;SDS011;3370;47.712;9.082;2023-02-18T10:52:15;4.30;;;2.10;;
6667;SDS011;3370;47.712;9.082;2023-02-18T10:54:51;2.30;;;2.00;;
6667;SDS011;3370;47.712;9.082;2023-02-18T10:57:28;2.30;;;1.70;;
6667;SDS011;3370;47.712;9.082;2023-02-18T11:02:40;2.27;;;1.63;;
6667;SDS011;3370;47.712;9.082;2023-02-18T11:05:23;1.40;;;1.40;;
6667;SDS011;3370;47.712;9.082;2023-02-18T11:07:52;1.50;;;1.50;;
6667;SDS011;3370;47.712;9.082;2023-02-18T11:10:25;1.43;;;1.33;;
6667;SDS011;3370;47.712;9.082;2023-02-18T11:12:57;1.40;;;1.40;;
6667;SDS011;3370;47.712;9.082;2023-02-18T11:15:31;3.23;;;1.50;;
6667;SDS011;3370;47.712;9.082;2023-02-18T11:17:57;1.13;;;1.13;;
6667;SDS011;3370;47.712;9.082;2023-02-18T11:21:00;1.33;;;1.23;;
6667;SDS011;3370;47.712;9.082;2023-02-18T11:23:30;1.17;;;1.17;;
6667;SDS011;3370;47.712;9.082;2023-02-18T11:26:05;1.30;;;1.30;;
6667;SDS011;3370;47.712;9.082;2023-02-18T11:31:11;2.80;;;1.33;;
6667;SDS011;3370;47.712;9.082;2023-02-18T11:33:50;1.20;;;1.20;;
6667;SDS011;3370;47.712;9.082;2023-02-18T11:36:33;1.10;;;1.10;;
6667;SDS011;3370;47.712;9.082;2023-02-18T11:42:04;1.50;;;1.40;;
6667;SDS011;3370;47.712;9.082;2023-02-18T11:44:33;2.60;;;1.10;;
6667;SDS011;3370;47.712;9.082;2023-02-18T11:49:39;1.37;;;1.27;;
6667;SDS011;3370;47.712;9.082;2023-02-18T11:52:18;1.60;;;1.43;;
6667;SDS011;3370;47.712;9.082;2023-02-18T11:58:03;1.20;;;1.20;;
6667;SDS011;3370;47.712;9.082;2023-02-18T12:00:44;1.43;;;1.33;;
6667;SDS011;3370;47.712;9.082;2023-02-18T12:05:59;1.70;;;1.43;;
6667;SDS011;3370;47.712;9.082;2023-02-18T12:08:35;1.37;;;1.30;;
6667;SDS011;3370;47.712;9.082;2023-02-18T12:11:31;1.50;;;1.40;;
6667;SDS011;3370;47.712;9.082;2023-02-18T12:14:24;1.23;;;1.23;;
6667;SDS011;3370;47.712;9.082;2023-02-18T12:22:34;2.23;;;1.60;;
6667;SDS011;3370;47.712;9.082;2023-02-18T12:34:00;4.23;;;1.60;;
6667;SDS011;3370;47.712;9.082;2023-02-18T12:37:38;1.20;;;1.20;;
6667;SDS011;3370;47.712;9.082;2023-02-18T12:43:14;1.80;;;1.70;;
6667;SDS011;3370;47.712;9.082;2023-02-18T13:01:09;1.40;;;1.30;;
6667;SDS011;3370;47.712;9.082;2023-02-18T13:07:04;1.43;;;1.33;;
6667;SDS011;3370;47.712;9.082;2023-02-18T13:10:19;1.43;;;1.37;;
6667;SDS011;3370;47.712;9.082;2023-02-18T13:13:10;0.90;;;0.90;;
6667;SDS011;3370;47.712;9.082;2023-02-18T13:15:54;1.00;;;1.00;;
6667;SDS011;3370;47.712;9.082;2023-02-18T13:19:02;1.00;;;0.90;;
6667;SDS011;3370;47.712;9.082;2023-02-18T13:21:48;1.33;;;1.10;;
6667;SDS011;3370;47.712;9.082;2023-02-18T13:24:39;0.80;;;0.80;;
6667;SDS011;3370;47.712;9.082;2023-02-18T13:27:16;0.90;;;0.90;;
6667;SDS011;3370;47.712;9.082;2023-02-18T13:33:22;1.67;;;0.90;;
6667;SDS011;3370;47.712;9.082;2023-02-18T13:39:05;0.93;;;0.90;;
6667;SDS011;3370;47.712;9.082;2023-02-18T13:41:43;1.17;;;0.90;;
6667;SDS011;3370;47.712;9.082;2023-02-18T13:46:54;1.00;;;1.00;;
6667;SDS011;3370;47.712;9.082;2023-02-18T13:49:25;2.10;;;1.27;;
6667;SDS011;3370;47.712;9.082;2023-02-18T13:51:58;0.73;;;0.73;;
6667;SDS011;3370;47.712;9.082;2023-02-18T13:54:27;1.80;;;1.20;;
6667;SDS011;3370;47.712;9.082;2023-02-18T13:57:14;0.80;;;0.80;;
6667;SDS011;3370;47.712;9.082;2023-02-18T13:59:53;0.97;;;0.97;;
6667;SDS011;3370;47.712;9.082;2023-02-18T14:02:33;1.50;;;1.33;;
6667;SDS011;3370;47.712;9.082;2023-02-18T14:10:01;1.00;;;1.00;;
6667;SDS011;3370;47.712;9.082;2023-02-18T14:31:01;0.90;;;0.90;;
6667;SDS011;3370;47.712;9.082;2023-02-18T14:36:21;1.00;;;1.00;;
6667;SDS011;3370;47.712;9.082;2023-02-18T14:40:03;0.93;;;0.93;;
6667;SDS011;3370;47.712;9.082;2023-02-18T14:51:29;1.10;;;1.10;;
6667;SDS011;3370;47.712;9.082;2023-02-18T14:54:01;1.17;;;1.07;;
6667;SDS011;3370;47.712;9.082;2023-02-18T14:56:30;0.90;;;0.90;;
6667;SDS011;3370;47.712;9.082;2023-02-18T14:59:02;1.20;;;1.20;;
6667;SDS011;3370;47.712;9.082;2023-02-18T15:01:31;1.50;;;1.40;;
6667;SDS011;3370;47.712;9.082;2023-02-18T15:04:01;0.97;;;0.97;;
6667;SDS011;3370;47.712;9.082;2023-02-18T15:06:35;1.10;;;1.10;;
6667;SDS011;3370;47.712;9.082;2023-02-18T15:09:12;1.40;;;1.30;;
6667;SDS011;3370;47.712;9.082;2023-02-18T15:11:44;3.83;;;2.43;;
6667;SDS011;3370;47.712;9.082;2023-02-18T15:14:23;2.70;;;1.33;;
6667;SDS011;3370;47.712;9.082;2023-02-18T15:16:54;2.20;;;1.23;;
6667;SDS011;3370;47.712;9.082;2023-02-18T15:19:21;1.10;;;1.10;;
6667;SDS011;3370;47.712;9.082;2023-02-18T15:21:52;1.07;;;1.07;;
6667;SDS011;3370;47.712;9.082;2023-02-18T15:27:21;1.50;;;1.40;;
6667;SDS011;3370;47.712;9.082;2023-02-18T15:32:39;1.80;;;1.70;;
6667;SDS011;3370;47.712;9.082;2023-02-18T15:35:28;4.67;;;2.63;;
6667;SDS011;3370;47.712;9.082;2023-02-18T15:37:57;2.40;;;1.60;;
6667;SDS011;3370;47.712;9.082;2023-02-18T15:40:27;2.33;;;1.50;;
6667;SDS011;3370;47.712;9.082;2023-02-18T15:42:58;1.60;;;1.60;;
6667;SDS011;3370;47.712;9.082;2023-02-18T15:45:38;2.70;;;1.50;;
6667;SDS011;3370;47.712;9.082;2023-02-18T15:48:12;2.00;;;1.60;;
6667;SDS011;3370;47.712;9.082;2023-02-18T15:50:57;1.73;;;1.63;;
6667;SDS011;3370;47.712;9.082;2023-02-18T15:53:35;1.57;;;1.57;;
6667;SDS011;3370;47.712;9.082;2023-02-18T15:56:06;1.30;;;1.27;;
6667;SDS011;3370;47.712;9.082;2023-02-18T15:58:39;1.67;;;1.60;;
6667;SDS011;3370;47.712;9.082;2023-02-18T16:01:06;3.23;;;3.03;;
6667;SDS011;3370;47.712;9.082;2023-02-18T16:03:50;3.43;;;3.23;;
6667;SDS011;3370;47.712;9.082;2023-02-18T16:08:56;7.97;;;5.63;;
6667;SDS011;3370;47.712;9.082;2023-02-18T16:11:44;2.10;;;1.90;;
6667;SDS011;3370;47.712;9.082;2023-02-18T16:19:56;1.30;;;1.30;;
6667;SDS011;3370;47.712;9.082;2023-02-18T16:22:44;1.00;;;1.00;;
6667;SDS011;3370;47.712;9.082;2023-02-18T16:25:17;2.80;;;1.70;;
6667;SDS011;3370;47.712;9.082;2023-02-18T16:28:02;1.77;;;1.50;;
6667;SDS011;3370;47.712;9.082;2023-02-18T16:30:40;1.37;;;1.37;;
6667;SDS011;3370;47.712;9.082;2023-02-18T16:33:08;1.57;;;1.47;;
6667;SDS011;3370;47.712;9.082;2023-02-18T16:35:33;1.57;;;1.57;;
6667;SDS011;3370;47.712;9.082;2023-02-18T16:37:59;1.53;;;1.43;;
6667;SDS011;3370;47.712;9.082;2023-02-18T16:42:55;1.90;;;1.30;;
6667;SDS011;3370;47.712;9.082;2023-02-18T16:45:29;1.50;;;1.40;;
6667;SDS011;3370;47.712;9.082;2023-02-18T16:48:05;1.33;;;1.33;;
6667;SDS011;3370;47.712;9.082;2023-02-18T16:50:35;1.97;;;1.87;;
6667;SDS011;3370;47.712;9.082;2023-02-18T16:53:02;1.37;;;1.27;;
6667;SDS011;3370;47.712;9.082;2023-02-18T16:55:28;2.13;;;1.60;;
6667;SDS011;3370;47.712;9.082;2023-02-18T16:57:54;1.70;;;1.60;;
6667;SDS011;3370;47.712;9.082;2023-02-18T17:00:21;1.97;;;1.87;;
6667;SDS011;3370;47.712;9.082;2023-02-18T17:02:49;6.93;;;5.67;;
6667;SDS011;3370;47.712;9.082;2023-02-18T17:05:19;10.20;;;4.20;;
6667;SDS011;3370;47.712;9.082;2023-02-18T17:07:52;9.40;;;6.77;;
6667;SDS011;3370;47.712;9.082;2023-02-18T17:10:21;8.23;;;6.80;;
6667;SDS011;3370;47.712;9.082;2023-02-18T17:12:47;7.27;;;4.80;;
6667;SDS011;3370;47.712;9.082;2023-02-18T17:15:28;3.93;;;3.50;;
6667;SDS011;3370;47.712;9.082;2023-02-18T17:17:58;4.13;;;3.70;;
6667;SDS011;3370;47.712;9.082;2023-02-18T17:20:26;2.40;;;2.30;;
6667;SDS011;3370;47.712;9.082;2023-02-18T17:22:55;3.57;;;3.27;;
6667;SDS011;3370;47.712;9.082;2023-02-18T17:25:22;5.80;;;4.10;;
6667;SDS011;3370;47.712;9.082;2023-02-18T17:28:03;7.60;;;2.70;;
6667;SDS011;3370;47.712;9.082;2023-02-18T17:30:29;2.70;;;2.50;;
6667;SDS011;3370;47.712;9.082;2023-02-18T17:33:00;3.60;;;2.77;;
6667;SDS011;3370;47.712;9.082;2023-02-18T17:35:26;4.60;;;2.47;;
6667;SDS011;3370;47.712;9.082;2023-02-18T17:37:52;3.67;;;2.83;;
6667;SDS011;3370;47.712;9.082;2023-02-18T17:40:19;2.80;;;2.60;;
6667;SDS011;3370;47.712;9.082;2023-02-18T17:42:48;2.80;;;2.60;;
6667;SDS011;3370;47.712;9.082;2023-02-18T17:45:33;3.17;;;2.10;;
6667;SDS011;3370;47.712;9.082;2023-02-18T17:48:04;3.73;;;3.30;;
6667;SDS011;3370;47.712;9.082;2023-02-18T17:50:31;2.53;;;2.33;;
6667;SDS011;3370;47.712;9.082;2023-02-18T17:52:57;2.40;;;2.20;;
6667;SDS011;3370;47.712;9.082;2023-02-18T17:55:25;2.00;;;1.90;;
6667;SDS011;3370;47.712;9.082;2023-02-18T17:58:03;1.80;;;1.70;;
6667;SDS011;3370;47.712;9.082;2023-02-18T18:00:30;1.70;;;1.60;;
6667;SDS011;3370;47.712;9.082;2023-02-18T18:03:06;2.00;;;1.80;;
6667;SDS011;3370;47.712;9.082;2023-02-18T18:05:33;2.77;;;2.50;;
6667;SDS011;3370;47.712;9.082;2023-02-18T18:08:03;2.03;;;1.90;;
6667;SDS011;3370;47.712;9.082;2023-02-18T18:10:42;1.87;;;1.77;;
6667;SDS011;3370;47.712;9.082;2023-02-18T18:13:26;2.30;;;2.13;;
6667;SDS011;3370;47.712;9.082;2023-02-18T18:15:56;1.93;;;1.67;;
6667;SDS011;3370;47.712;9.082;2023-02-18T18:18:23;2.00;;;1.87;;
6667;SDS011;3370;47.712;9.082;2023-02-18T18:20:51;2.93;;;2.17;;
6667;SDS011;3370;47.712;9.082;2023-02-18T18:23:20;4.70;;;2.57;;
6667;SDS011;3370;47.712;9.082;2023-02-18T18:25:48;1.93;;;1.83;;
6667;SDS011;3370;47.712;9.082;2023-02-18T18:28:20;1.77;;;1.67;;
6667;SDS011;3370;47.712;9.082;2023-02-18T18:30:47;1.73;;;1.63;;
6667;SDS011;3370;47.712;9.082;2023-02-18T18:33:17;2.40;;;2.20;;
6667;SDS011;3370;47.712;9.082;2023-02-18T18:35:56;2.40;;;2.07;;